Terminal Aerodrome Forecast
Issued by NWS Chicago, IL

Home | Current Version | Previous Version | Text Only | Print | Product List | Glossary Off
Versions: 1 2 3 4 5 6 7 8 9 10 11 12 13 14 15 16 17 18 19 20 21 22 23 24 25

000
FTUS43 KLOT 261459 AAA
TAFRFD
TAF AMD
KRFD 261459Z 2615/2712 22012KT P6SM SCT050 BKN250
     FM270100 17005KT P6SM BKN250 PROB30 2709/2712 5SM TSRA
      BKN050CB=

USA.gov is the U.S. government's official web portal to all federal, state and local government web resources and services.